createdAt,value
2022-12-15T00:00:19.470Z,95280.53
2022-12-15T00:03:06.680Z,95272.34
2022-12-15T00:05:52.230Z,95287.88
2022-12-15T00:08:38.147Z,95280.09
2022-12-15T00:11:23.972Z,95282.69
2022-12-15T00:14:09.999Z,95282.25
2022-12-15T00:16:55.923Z,95287.72
2022-12-15T00:19:43.113Z,95285.13
2022-12-15T00:22:28.671Z,95290.31
2022-12-15T00:25:14.649Z,95299.69
2022-12-15T00:28:00.434Z,95295.44
2022-12-15T00:30:49.788Z,95302.34
2022-12-15T00:33:36.523Z,95310.00
2022-12-15T00:36:24.324Z,95312.00
2022-12-15T00:38:52.437Z,95320.97
2022-12-15T00:41:20.532Z,95322.59
2022-12-15T00:43:48.748Z,95337.00
2022-12-15T00:46:34.451Z,95325.66
2022-12-15T00:49:03.424Z,95338.88
2022-12-15T00:51:50.407Z,95338.03
2022-12-15T00:54:36.073Z,95337.59
2022-12-15T00:57:21.658Z,95342.13
2022-12-15T01:00:07.713Z,95344.94
2022-12-15T01:02:53.425Z,95339.19
2022-12-15T01:05:39.414Z,95338.63
2022-12-15T01:08:26.400Z,95335.19
2022-12-15T01:11:11.982Z,95339.53
2022-12-15T01:13:58.017Z,95345.38
2022-12-15T01:16:44.002Z,95344.38
2022-12-15T01:19:29.884Z,95348.59
2022-12-15T01:21:57.964Z,95361.16
2022-12-15T01:24:27.445Z,95354.03
2022-12-15T01:26:56.710Z,95371.00
2022-12-15T01:29:25.145Z,95377.06
2022-12-15T01:31:53.293Z,95362.03
2022-12-15T01:34:22.688Z,95361.06
2022-12-15T01:36:50.804Z,95350.44
2022-12-15T01:39:18.910Z,95353.47
2022-12-15T01:41:47.887Z,95352.53
2022-12-15T01:44:19.179Z,95357.13
2022-12-15T01:46:49.985Z,95366.31
2022-12-15T01:49:23.126Z,95370.22
2022-12-15T01:51:56.621Z,95372.34
2022-12-15T01:54:30.086Z,95374.94
2022-12-15T01:57:05.635Z,95375.19
2022-12-15T01:59:38.516Z,95376.00
2022-12-15T02:02:07.103Z,95360.84
2022-12-15T02:04:37.792Z,95357.53
2022-12-15T02:07:06.020Z,95355.06
2022-12-15T02:09:34.373Z,95364.13
2022-12-15T02:12:16.605Z,95367.28
2022-12-15T02:14:59.867Z,95382.84
2022-12-15T02:17:41.077Z,95392.06
2022-12-15T02:20:50.261Z,95391.63
2022-12-15T02:24:11.452Z,95386.63
2022-12-15T02:27:22.790Z,95385.84
2022-12-15T02:30:23.580Z,95380.38
2022-12-15T02:33:18.544Z,95385.19
2022-12-15T02:36:00.367Z,95393.00
2022-12-15T02:38:35.149Z,95387.19
2022-12-15T02:41:05.812Z,95397.31
2022-12-15T02:43:38.924Z,95395.22
2022-12-15T02:46:23.709Z,95385.84
2022-12-15T02:49:05.660Z,95392.44
2022-12-15T02:51:45.064Z,95403.59
2022-12-15T02:54:36.121Z,95398.34
2022-12-15T02:57:14.629Z,95396.75
2022-12-15T02:59:55.330Z,95389.78
2022-12-15T03:02:27.936Z,95392.75
2022-12-15T03:04:56.781Z,95383.25
2022-12-15T03:07:27.771Z,95389.78
2022-12-15T03:09:57.173Z,95388.16
2022-12-15T03:12:25.426Z,95389.97
2022-12-15T03:14:53.524Z,95396.81
2022-12-15T03:17:21.558Z,95399.59
2022-12-15T03:19:50.929Z,95406.09
2022-12-15T03:22:19.102Z,95420.84
2022-12-15T03:24:48.256Z,95414.78
2022-12-15T03:27:16.564Z,95406.19
2022-12-15T03:29:44.685Z,95419.06
2022-12-15T03:32:12.781Z,95419.00
2022-12-15T03:34:41.831Z,95412.94
2022-12-15T03:37:13.400Z,95414.22
2022-12-15T03:39:41.462Z,95416.75
2022-12-15T03:42:09.620Z,95410.34
2022-12-15T03:44:37.694Z,95418.28
2022-12-15T03:47:05.814Z,95423.53
2022-12-15T03:49:34.150Z,95429.72
2022-12-15T03:52:02.921Z,95449.75
2022-12-15T03:54:32.344Z,95452.78
2022-12-15T03:57:00.539Z,95437.50
2022-12-15T03:59:28.581Z,95427.69
2022-12-15T04:01:56.705Z,95435.09
2022-12-15T04:04:24.810Z,95437.88
2022-12-15T04:06:52.913Z,95437.75
2022-12-15T04:09:21.005Z,95449.56
2022-12-15T04:11:50.433Z,95456.97
2022-12-15T04:14:18.445Z,95462.53
2022-12-15T04:16:46.564Z,95455.66
2022-12-15T04:19:32.360Z,95454.00
2022-12-15T04:25:12.296Z,95448.06
2022-12-15T04:28:01.717Z,95455.59
2022-12-15T04:30:49.479Z,95450.28
2022-12-15T04:33:36.051Z,95457.66
2022-12-15T04:36:22.680Z,95447.38
2022-12-15T04:39:08.515Z,95449.97
2022-12-15T04:41:54.069Z,95449.16
2022-12-15T04:44:41.305Z,95451.69
2022-12-15T04:47:27.488Z,95449.81
2022-12-15T04:50:13.458Z,95454.78
2022-12-15T04:52:59.528Z,95465.91
2022-12-15T04:55:45.495Z,95467.50
2022-12-15T04:58:31.069Z,95457.47
2022-12-15T05:01:18.356Z,95461.06
2022-12-15T05:04:04.640Z,95458.03
2022-12-15T05:06:50.605Z,95457.56
2022-12-15T05:09:36.397Z,95460.78
2022-12-15T05:12:22.074Z,95455.66
2022-12-15T05:15:07.756Z,95462.19
2022-12-15T05:17:54.817Z,95469.81
2022-12-15T05:20:40.625Z,95490.38
2022-12-15T05:23:26.158Z,95480.06
2022-12-15T05:26:11.823Z,95473.28
2022-12-15T05:28:57.412Z,95467.56
2022-12-15T05:31:43.185Z,95465.34
2022-12-15T05:34:12.665Z,95462.09
2022-12-15T05:36:40.715Z,95462.09
2022-12-15T05:39:08.955Z,95474.44
2022-12-15T05:41:37.031Z,95483.13
2022-12-15T05:44:05.481Z,95484.25
2022-12-15T05:46:33.670Z,95500.53
2022-12-15T05:49:05.003Z,95493.19
2022-12-15T05:51:35.018Z,95492.22
2022-12-15T05:54:03.163Z,95487.91
2022-12-15T05:56:31.909Z,95490.34
2022-12-15T05:59:00.123Z,95476.28
2022-12-15T06:01:31.413Z,95476.06
2022-12-15T06:04:00.177Z,95485.38
2022-12-15T06:06:28.407Z,95480.66
2022-12-15T06:08:58.153Z,95487.91
2022-12-15T06:11:26.476Z,95482.56
2022-12-15T06:13:56.060Z,95490.56
2022-12-15T06:16:27.960Z,95490.09
2022-12-15T06:18:59.077Z,95491.81
2022-12-15T06:21:30.558Z,95512.56
2022-12-15T06:24:00.649Z,95511.03
2022-12-15T06:26:33.612Z,95512.22
2022-12-15T06:29:05.482Z,95511.63
2022-12-15T06:31:34.425Z,95494.69
2022-12-15T06:34:06.600Z,95490.56
2022-12-15T06:36:35.181Z,95486.91
2022-12-15T06:39:08.297Z,95489.84
2022-12-15T06:41:36.708Z,95493.88
2022-12-15T06:44:05.891Z,95489.94
2022-12-15T06:46:35.018Z,95499.50
2022-12-15T06:49:03.387Z,95501.59
2022-12-15T06:51:32.224Z,95511.84
2022-12-15T06:54:01.662Z,95498.88
2022-12-15T06:56:34.911Z,95498.25
2022-12-15T06:59:04.874Z,95500.72
2022-12-15T07:01:33.828Z,95496.19
2022-12-15T07:04:05.418Z,95492.94
2022-12-15T07:06:37.175Z,95486.59
2022-12-15T07:09:12.863Z,95493.56
2022-12-15T07:11:42.265Z,95506.56
2022-12-15T07:14:12.310Z,95508.03
2022-12-15T07:16:41.313Z,95505.25
2022-12-15T07:19:13.257Z,95501.00
2022-12-15T07:21:42.100Z,95500.56
2022-12-15T07:24:12.904Z,95508.16
2022-12-15T07:26:43.171Z,95511.78
2022-12-15T07:29:14.927Z,95519.00
2022-12-15T07:31:46.439Z,95517.06
2022-12-15T07:34:14.578Z,95514.41
2022-12-15T07:36:47.036Z,95513.63
2022-12-15T07:39:18.153Z,95509.41
2022-12-15T07:41:47.525Z,95504.03
2022-12-15T07:44:17.992Z,95499.59
2022-12-15T07:46:49.000Z,95510.75
2022-12-15T07:49:17.526Z,95513.34
2022-12-15T07:51:46.140Z,95515.41
2022-12-15T07:54:15.567Z,95511.94
2022-12-15T07:56:43.906Z,95522.16
2022-12-15T07:59:19.972Z,95535.63
2022-12-15T08:01:49.223Z,95547.72
2022-12-15T08:04:17.623Z,95547.78
2022-12-15T08:06:46.010Z,95541.19
2022-12-15T08:09:14.319Z,95557.34
2022-12-15T08:11:43.039Z,95561.59
2022-12-15T08:14:16.893Z,95559.69
2022-12-15T08:16:47.417Z,95561.94
2022-12-15T08:19:17.791Z,95563.38
2022-12-15T08:21:47.694Z,95559.41
2022-12-15T08:24:16.582Z,95558.00
2022-12-15T08:26:49.853Z,95567.13
2022-12-15T08:29:49.677Z,95571.03
2022-12-15T08:32:08.411Z,95570.41
2022-12-15T08:34:36.621Z,95568.63
2022-12-15T08:37:04.723Z,95572.81
2022-12-15T08:39:32.810Z,95573.09
2022-12-15T08:42:00.892Z,95580.78
2022-12-15T08:44:28.921Z,95582.94
2022-12-15T08:46:57.103Z,95584.31
2022-12-15T08:49:26.760Z,95590.38
2022-12-15T08:51:54.799Z,95593.75
2022-12-15T08:54:22.903Z,95585.97
2022-12-15T08:56:51.032Z,95586.44
2022-12-15T08:59:19.817Z,95585.56
2022-12-15T09:01:48.476Z,95579.94
2022-12-15T09:04:16.918Z,95573.75
2022-12-15T09:06:50.589Z,95568.19
2022-12-15T09:09:19.784Z,95557.81
2022-12-15T09:11:47.952Z,95566.25
2022-12-15T09:14:16.055Z,95571.88
2022-12-15T09:16:44.238Z,95577.69
2022-12-15T09:19:12.503Z,95576.69
2022-12-15T09:21:42.986Z,95576.06
2022-12-15T09:24:24.740Z,95571.75
2022-12-15T09:26:54.370Z,95579.06
2022-12-15T09:29:22.469Z,95584.72
2022-12-15T09:31:51.018Z,95578.06
2022-12-15T09:34:19.177Z,95578.75
2022-12-15T09:36:47.216Z,95579.81
2022-12-15T09:39:17.633Z,95569.88
2022-12-15T09:41:55.443Z,95570.50
2022-12-15T09:44:27.412Z,95587.84
2022-12-15T09:47:09.353Z,95582.56
2022-12-15T09:49:55.377Z,95591.41
2022-12-15T09:52:28.925Z,95598.19
2022-12-15T09:54:59.283Z,95587.56
2022-12-15T09:57:37.537Z,95587.00
2022-12-15T10:00:20.962Z,95583.59
2022-12-15T10:03:24.418Z,95576.28
2022-12-15T10:06:15.996Z,95568.22
2022-12-15T10:08:50.755Z,95566.22
2022-12-15T10:11:33.256Z,95576.53
2022-12-15T10:14:12.997Z,95590.41
2022-12-15T10:16:56.882Z,95589.03
2022-12-15T10:19:35.030Z,95585.09
2022-12-15T10:22:03.981Z,95587.16
2022-12-15T10:27:37.603Z,95590.09
2022-12-15T10:30:10.403Z,95582.59
2022-12-15T10:32:50.716Z,95574.34
2022-12-15T10:35:25.118Z,95562.53
2022-12-15T10:37:53.195Z,95551.03
2022-12-15T10:40:50.149Z,95543.59
2022-12-15T10:43:29.245Z,95532.41
2022-12-15T10:46:13.457Z,95525.22
2022-12-15T10:48:42.729Z,95523.63
2022-12-15T10:51:25.956Z,95527.78
2022-12-15T10:54:04.489Z,95535.00
2022-12-15T10:56:34.976Z,95523.13
2022-12-15T10:59:28.803Z,95520.16
2022-12-15T11:02:37.077Z,95520.41
2022-12-15T11:05:16.081Z,95506.25
2022-12-15T11:07:47.568Z,95511.63
2022-12-15T11:10:21.759Z,95518.81
2022-12-15T11:13:12.953Z,95520.84
2022-12-15T11:15:50.468Z,95529.63
2022-12-15T11:18:39.331Z,95523.13
2022-12-15T11:21:13.624Z,95536.97
2022-12-15T11:23:52.665Z,95523.91
2022-12-15T11:26:31.664Z,95509.50
2022-12-15T11:29:03.386Z,95508.97
2022-12-15T11:31:41.091Z,95515.81
2022-12-15T11:34:15.272Z,95515.25
2022-12-15T11:37:04.683Z,95505.41
2022-12-15T11:40:05.709Z,95509.63
2022-12-15T11:45:55.585Z,95492.41
2022-12-15T11:48:35.787Z,95488.63
2022-12-15T11:51:11.827Z,95474.22
2022-12-15T11:54:03.451Z,95480.59
2022-12-15T11:56:37.994Z,95478.19
2022-12-15T11:59:30.910Z,95472.00
2022-12-15T12:02:27.934Z,95462.19
2022-12-15T12:05:31.066Z,95443.00
2022-12-15T12:08:14.486Z,95449.94
2022-12-15T12:10:54.116Z,95440.78
2022-12-15T12:13:39.903Z,95447.59
2022-12-15T12:16:22.007Z,95435.41
2022-12-15T12:18:58.063Z,95423.75
2022-12-15T12:21:32.825Z,95415.75
2022-12-15T12:24:05.316Z,95415.53
2022-12-15T12:26:41.516Z,95416.50
2022-12-15T12:29:18.147Z,95415.28
2022-12-15T12:32:04.461Z,95423.78
2022-12-15T12:34:43.683Z,95424.97
2022-12-15T12:37:23.752Z,95419.22
2022-12-15T12:39:54.318Z,95413.38
2022-12-15T12:42:30.238Z,95417.38
2022-12-15T12:44:58.338Z,95409.78
2022-12-15T12:47:31.713Z,95402.00
2022-12-15T12:50:03.629Z,95404.25
2022-12-15T12:52:36.976Z,95417.88
2022-12-15T12:55:28.074Z,95416.31
2022-12-15T12:57:56.591Z,95400.72
2022-12-15T13:00:30.899Z,95400.75
2022-12-15T13:03:22.021Z,95394.34
2022-12-15T13:05:54.368Z,95395.34
2022-12-15T13:08:52.609Z,95388.13
2022-12-15T13:11:58.684Z,95388.75
2022-12-15T13:14:48.323Z,95385.53
2022-12-15T13:17:31.732Z,95381.34
2022-12-15T13:20:25.736Z,95381.56
2022-12-15T13:22:55.047Z,95378.97
2022-12-15T13:25:41.369Z,95373.59
2022-12-15T13:28:50.619Z,95370.13
2022-12-15T13:31:28.577Z,95358.34
2022-12-15T13:34:18.915Z,95351.78
2022-12-15T13:36:56.884Z,95343.22
2022-12-15T13:39:58.789Z,95335.59
2022-12-15T13:45:50.639Z,95335.81
2022-12-15T13:48:35.781Z,95337.84
2022-12-15T13:51:27.672Z,95343.03
2022-12-15T13:54:01.241Z,95326.63
2022-12-15T13:56:56.554Z,95340.41
2022-12-15T13:59:41.443Z,95342.78
2022-12-15T14:02:26.996Z,95339.97
2022-12-15T14:05:14.956Z,95339.19
2022-12-15T14:07:54.204Z,95342.78
2022-12-15T14:10:26.338Z,95334.19
2022-12-15T14:12:59.031Z,95345.63
2022-12-15T14:15:32.488Z,95349.59
2022-12-15T14:18:03.281Z,95351.97
2022-12-15T14:20:41.255Z,95355.59
2022-12-15T14:23:20.614Z,95350.22
2022-12-15T14:25:58.030Z,95357.59
2022-12-15T14:28:30.094Z,95352.41
2022-12-15T14:31:04.990Z,95348.44
2022-12-15T14:33:38.400Z,95358.44
2022-12-15T14:36:11.328Z,95358.00
2022-12-15T14:38:46.151Z,95358.56
2022-12-15T14:41:21.760Z,95356.38
2022-12-15T14:44:31.441Z,95363.41
2022-12-15T14:46:40.652Z,95358.38
2022-12-15T14:49:10.975Z,95365.22
2022-12-15T14:51:48.202Z,95359.22
2022-12-15T14:54:31.331Z,95354.00
2022-12-15T14:57:02.628Z,95350.81
2022-12-15T14:59:35.875Z,95346.03
2022-12-15T15:02:15.729Z,95347.63
2022-12-15T15:03:05.500Z,95335.78
2022-12-15T15:03:13.941Z,95507.41
2022-12-15T15:04:43.842Z,95350.22
2022-12-15T15:07:19.189Z,95340.44
2022-12-15T15:09:47.834Z,95339.28
2022-12-15T15:12:18.757Z,95340.25
2022-12-15T15:14:50.226Z,95340.03
2022-12-15T15:17:27.296Z,95339.25
2022-12-15T15:19:59.696Z,95343.63
2022-12-15T15:22:41.118Z,95336.03
2022-12-15T15:25:39.930Z,95339.44
2022-12-15T15:28:21.234Z,95338.81
2022-12-15T15:30:51.188Z,95347.81
2022-12-15T15:33:27.044Z,95348.41
2022-12-15T15:35:57.971Z,95354.38
2022-12-15T15:38:29.649Z,95357.59
2022-12-15T15:41:00.462Z,95359.00
2022-12-15T15:43:29.927Z,95372.81
2022-12-15T15:46:03.916Z,95364.03
2022-12-15T15:48:38.136Z,95364.41
2022-12-15T15:51:07.202Z,95363.22
2022-12-15T15:53:36.485Z,95361.44
2022-12-15T15:56:07.951Z,95361.03
2022-12-15T15:58:36.713Z,95355.84
2022-12-15T16:01:11.151Z,95358.81
2022-12-15T16:03:43.029Z,95363.25
2022-12-15T16:06:18.290Z,95356.41
2022-12-15T16:08:48.333Z,95352.03
2022-12-15T16:11:16.666Z,95351.41
2022-12-15T16:13:45.217Z,95346.03
2022-12-15T16:16:20.674Z,95338.78
2022-12-15T16:18:50.153Z,95338.56
2022-12-15T16:21:20.671Z,95349.59
2022-12-15T16:23:49.688Z,95348.97
2022-12-15T16:26:28.959Z,95347.56
2022-12-15T16:28:57.199Z,95344.41
2022-12-15T16:31:40.973Z,95335.56
2022-12-15T16:34:11.414Z,95341.97
2022-12-15T16:36:40.094Z,95341.59
2022-12-15T16:39:25.763Z,95352.03
2022-12-15T16:41:56.216Z,95346.78
2022-12-15T16:44:25.190Z,95342.00
2022-12-15T16:46:53.813Z,95345.63
2022-12-15T16:49:23.479Z,95348.59
2022-12-15T16:51:54.546Z,95341.19
2022-12-15T16:54:27.824Z,95338.00
2022-12-15T16:56:57.769Z,95344.56
2022-12-15T16:59:35.649Z,95336.16
2022-12-15T17:02:24.699Z,95325.41
2022-12-15T17:04:55.888Z,95329.75
2022-12-15T17:07:26.083Z,95327.59
2022-12-15T17:09:54.391Z,95320.38
2022-12-15T17:12:22.431Z,95311.56
2022-12-15T17:14:50.465Z,95301.44
2022-12-15T17:17:21.070Z,95301.84
2022-12-15T17:20:19.692Z,95293.59
2022-12-15T17:22:39.231Z,95294.78
2022-12-15T17:25:14.011Z,95304.41
2022-12-15T17:27:42.013Z,95313.63
2022-12-15T17:30:16.511Z,95311.22
2022-12-15T17:32:45.652Z,95305.19
2022-12-15T17:35:14.127Z,95302.38
2022-12-15T17:37:45.108Z,95309.41
2022-12-15T17:40:22.270Z,95302.19
2022-12-15T17:45:24.132Z,95292.19
2022-12-15T17:47:52.916Z,95295.19
2022-12-15T17:50:20.954Z,95296.78
2022-12-15T17:52:50.314Z,95295.56
2022-12-15T17:55:24.329Z,95309.13
2022-12-15T17:57:55.390Z,95297.16
2022-12-15T18:00:27.535Z,95296.97
2022-12-15T18:02:57.387Z,95297.53
2022-12-15T18:05:28.489Z,95292.72
2022-12-15T18:08:01.212Z,95295.94
2022-12-15T18:10:33.544Z,95291.56
2022-12-15T18:13:31.776Z,95285.78
2022-12-15T18:16:27.176Z,95294.34
2022-12-15T18:18:55.444Z,95299.56
2022-12-15T18:21:24.886Z,95296.53
2022-12-15T18:23:54.272Z,95297.34
2022-12-15T18:26:22.364Z,95298.91
2022-12-15T18:28:50.551Z,95289.31
2022-12-15T18:31:25.720Z,95291.31
2022-12-15T18:33:53.962Z,95290.91
2022-12-15T18:36:24.475Z,95288.69
2022-12-15T18:38:54.469Z,95285.84
2022-12-15T18:41:22.975Z,95292.47
2022-12-15T18:43:51.905Z,95288.31
2022-12-15T18:46:20.293Z,95285.88
2022-12-15T18:48:48.353Z,95287.28
2022-12-15T18:51:18.786Z,95293.84
2022-12-15T18:53:48.485Z,95293.84
2022-12-15T18:56:21.986Z,95287.44
2022-12-15T18:58:50.079Z,95287.78
2022-12-15T19:01:18.130Z,95279.41
2022-12-15T19:03:46.358Z,95276.84
2022-12-15T19:06:25.967Z,95278.59
2022-12-15T19:08:54.649Z,95280.78
2022-12-15T19:11:30.981Z,95276.59
2022-12-15T19:14:00.475Z,95249.94
2022-12-15T19:16:49.415Z,95247.38
2022-12-15T19:19:35.361Z,95250.34
2022-12-15T19:22:29.477Z,95247.50
2022-12-15T19:24:58.482Z,95238.44
2022-12-15T19:27:28.155Z,95238.47
2022-12-15T19:29:56.659Z,95225.59
2022-12-15T19:32:25.697Z,95217.16
2022-12-15T19:34:53.754Z,95223.53
2022-12-15T19:37:26.904Z,95222.69
2022-12-15T19:39:56.440Z,95227.03
2022-12-15T19:42:31.863Z,95224.41
2022-12-15T19:45:01.348Z,95226.97
2022-12-15T19:47:30.020Z,95235.56
2022-12-15T19:49:58.116Z,95237.75
2022-12-15T19:52:27.088Z,95228.66
2022-12-15T19:54:55.195Z,95240.13
2022-12-15T19:57:23.200Z,95239.69
2022-12-15T19:59:52.568Z,95233.69
2022-12-15T20:02:23.015Z,95243.13
2022-12-15T20:04:51.090Z,95242.56
2022-12-15T20:07:27.073Z,95244.97
2022-12-15T20:09:55.877Z,95248.75
2022-12-15T20:12:24.454Z,95248.75
2022-12-15T20:14:54.410Z,95247.38
2022-12-15T20:17:22.497Z,95242.16
2022-12-15T20:19:50.561Z,95249.38
2022-12-15T20:22:20.069Z,95238.09
2022-12-15T20:24:48.880Z,95236.06
2022-12-15T20:27:20.256Z,95242.88
2022-12-15T20:29:48.356Z,95247.75
2022-12-15T20:32:21.114Z,95248.09
2022-12-15T20:34:49.512Z,95253.13
2022-12-15T20:37:22.459Z,95241.72
2022-12-15T20:39:56.969Z,95246.72
2022-12-15T20:42:26.334Z,95252.56
2022-12-15T20:44:54.598Z,95251.97
2022-12-15T20:47:27.444Z,95260.81
2022-12-15T20:49:56.323Z,95267.22
2022-12-15T20:52:27.250Z,95264.81
2022-12-15T20:54:56.116Z,95262.03
2022-12-15T20:57:24.239Z,95273.66
2022-12-15T20:59:52.211Z,95266.47
2022-12-15T21:02:24.051Z,95266.47
2022-12-15T21:04:52.767Z,95256.47
2022-12-15T21:07:20.931Z,95259.47
2022-12-15T21:09:49.099Z,95257.47
2022-12-15T21:12:19.537Z,95258.00
2022-12-15T21:14:47.970Z,95247.00
2022-12-15T21:17:18.199Z,95255.66
2022-12-15T21:19:47.813Z,95252.81
2022-12-15T21:22:22.136Z,95260.41
2022-12-15T21:24:52.577Z,95247.16
2022-12-15T21:27:22.087Z,95252.38
2022-12-15T21:29:52.823Z,95243.59
2022-12-15T21:32:21.391Z,95243.22
2022-12-15T21:34:51.801Z,95229.78
2022-12-15T21:37:26.418Z,95235.81
2022-12-15T21:39:55.170Z,95238.25
2022-12-15T21:42:23.856Z,95241.44
2022-12-15T21:44:52.025Z,95238.81
2022-12-15T21:47:47.754Z,95237.41
2022-12-15T21:50:17.122Z,95230.78
2022-12-15T21:52:46.686Z,95229.41
2022-12-15T21:55:17.263Z,95233.84
2022-12-15T21:57:45.458Z,95232.63
2022-12-15T22:00:16.698Z,95226.63
2022-12-15T22:02:45.702Z,95246.22
2022-12-15T22:05:20.401Z,95245.88
2022-12-15T22:07:48.760Z,95246.88
2022-12-15T22:10:17.584Z,95249.56
2022-12-15T22:12:58.973Z,95241.75
2022-12-15T22:15:27.349Z,95249.59
2022-12-15T22:17:55.925Z,95253.59
2022-12-15T22:20:26.327Z,95256.19
2022-12-15T22:22:54.346Z,95254.41
2022-12-15T22:25:25.616Z,95254.00
2022-12-15T22:27:54.871Z,95259.66
2022-12-15T22:30:26.047Z,95270.06
2022-12-15T22:32:54.300Z,95265.06
2022-12-15T22:35:27.318Z,95259.03
2022-12-15T22:37:58.087Z,95259.03
2022-12-15T22:40:27.023Z,95266.47
2022-12-15T22:42:58.043Z,95267.34
2022-12-15T22:45:26.270Z,95266.16
2022-12-15T22:47:54.997Z,95265.75
2022-12-15T22:50:27.155Z,95260.56
2022-12-15T22:52:55.404Z,95270.56
2022-12-15T22:55:25.199Z,95266.09
2022-12-15T22:58:00.561Z,95273.69
2022-12-15T23:00:28.666Z,95279.47
2022-12-15T23:05:32.880Z,95277.75
2022-12-15T23:08:00.948Z,95290.28
2022-12-15T23:10:46.718Z,95273.91
2022-12-15T23:13:14.733Z,95277.44
2022-12-15T23:16:00.879Z,95280.56
2022-12-15T23:18:28.958Z,95275.50
2022-12-15T23:20:58.574Z,95271.50
2022-12-15T23:23:28.011Z,95273.25
2022-12-15T23:25:56.399Z,95271.66
2022-12-15T23:28:24.719Z,95275.25
2022-12-15T23:30:54.479Z,95274.63
2022-12-15T23:33:24.896Z,95273.00
2022-12-15T23:35:54.919Z,95274.13
2022-12-15T23:38:24.846Z,95273.94
2022-12-15T23:40:55.087Z,95281.28
2022-12-15T23:43:24.671Z,95287.84
2022-12-15T23:46:06.513Z,95288.16
2022-12-15T23:48:37.005Z,95292.66
2022-12-15T23:51:08.193Z,95286.25
2022-12-15T23:53:38.716Z,95284.78
2022-12-15T23:56:12.843Z,95289.16
2022-12-15T23:58:42.681Z,95282.94
